createdAt,value
2022-07-30T00:00:07.604Z,-155.26
2022-07-30T00:01:07.444Z,-155.26
2022-07-30T00:02:07.414Z,-156.48
2022-07-30T00:03:07.386Z,-156.48
2022-07-30T00:04:07.441Z,-156.48
2022-07-30T00:05:07.365Z,-156.48
2022-07-30T00:06:07.377Z,-156.48
2022-07-30T00:07:07.349Z,-156.48
2022-07-30T00:08:07.337Z,-156.48
2022-07-30T00:09:07.311Z,-156.48
2022-07-30T00:10:07.297Z,-156.48
2022-07-30T00:11:07.349Z,-156.48
2022-07-30T00:12:07.280Z,-156.48
2022-07-30T00:13:10.259Z,-156.48
2022-07-30T00:14:10.272Z,-156.48
2022-07-30T00:15:07.229Z,-156.48
2022-07-30T00:16:07.218Z,-156.48
2022-07-30T00:17:07.286Z,-155.26
2022-07-30T00:18:07.190Z,-155.26
2022-07-30T00:19:07.181Z,-156.48
2022-07-30T00:20:07.194Z,-156.48
2022-07-30T00:21:07.171Z,-156.48
2022-07-30T00:22:07.143Z,-155.26
2022-07-30T00:23:07.144Z,-155.26
2022-07-30T00:24:07.109Z,-155.26
2022-07-30T00:25:07.092Z,-155.26
2022-07-30T00:26:07.086Z,-155.26
2022-07-30T00:27:07.062Z,-155.26
2022-07-30T00:28:07.104Z,-155.26
2022-07-30T00:29:07.043Z,-155.26
2022-07-30T00:30:07.027Z,-155.26
2022-07-30T00:31:07.069Z,-155.26
2022-07-30T00:32:07.007Z,-155.26
2022-07-30T00:33:10.020Z,-155.26
2022-07-30T00:34:10.038Z,-155.26
2022-07-30T00:35:06.963Z,-155.26
2022-07-30T00:36:06.949Z,-156.48
2022-07-30T00:37:07.046Z,-155.26
2022-07-30T00:38:06.926Z,-155.26
2022-07-30T00:39:06.909Z,-155.26
2022-07-30T00:40:06.922Z,-155.26
2022-07-30T00:41:06.945Z,-155.26
2022-07-30T00:42:06.897Z,-155.26
2022-07-30T00:43:06.863Z,-156.48
2022-07-30T00:44:06.843Z,-156.48
2022-07-30T00:45:06.823Z,-155.26
2022-07-30T00:46:08.370Z,-155.26
2022-07-30T00:47:06.833Z,-155.26
2022-07-30T00:48:06.867Z,-155.26
2022-07-30T00:49:06.845Z,-155.26
2022-07-30T00:50:06.764Z,-155.26
2022-07-30T00:51:08.228Z,-155.26
2022-07-30T00:52:06.758Z,-156.48
2022-07-30T00:53:09.785Z,-155.26
2022-07-30T00:54:09.728Z,-156.48
2022-07-30T00:55:06.698Z,-155.26
2022-07-30T00:56:07.481Z,-155.26
2022-07-30T00:57:06.701Z,-155.26
2022-07-30T00:58:06.666Z,-155.26
2022-07-30T00:59:06.707Z,-155.26
2022-07-30T01:00:06.638Z,-155.26
2022-07-30T01:01:07.481Z,-155.26
2022-07-30T01:02:06.667Z,-155.26
2022-07-30T01:03:06.598Z,-155.26
2022-07-30T01:04:06.597Z,-155.26
2022-07-30T01:05:06.602Z,-155.26
2022-07-30T01:06:14.365Z,-155.26
2022-07-30T01:07:07.551Z,-155.26
2022-07-30T01:08:06.561Z,-155.26
2022-07-30T01:09:06.521Z,-155.26
2022-07-30T01:10:06.529Z,-155.26
2022-07-30T01:11:07.244Z,-155.26
2022-07-30T01:12:06.522Z,-155.26
2022-07-30T01:13:09.464Z,-155.26
2022-07-30T01:14:09.538Z,-155.26
2022-07-30T01:15:06.451Z,-155.26
2022-07-30T01:16:07.266Z,-155.26
2022-07-30T01:17:06.442Z,-155.26
2022-07-30T01:18:06.415Z,-155.26
2022-07-30T01:19:06.390Z,-155.26
2022-07-30T01:20:06.446Z,-154.04
2022-07-30T01:21:07.134Z,-155.26
2022-07-30T01:22:06.377Z,-155.26
2022-07-30T01:23:06.343Z,-155.26
2022-07-30T01:24:06.330Z,-155.26
2022-07-30T01:25:06.320Z,-155.26
2022-07-30T01:26:07.842Z,-155.26
2022-07-30T01:27:06.291Z,-155.26
2022-07-30T01:28:06.349Z,-156.48
2022-07-30T01:29:06.263Z,-155.26
2022-07-30T01:30:06.250Z,-155.26
2022-07-30T01:31:07.004Z,-155.26
2022-07-30T01:32:06.296Z,-155.26
2022-07-30T01:33:09.231Z,-155.26
2022-07-30T01:34:09.219Z,-155.26
2022-07-30T01:35:06.180Z,-155.26
2022-07-30T01:36:06.932Z,-155.26
2022-07-30T01:37:06.187Z,-155.26
2022-07-30T01:38:06.186Z,-155.26
2022-07-30T01:39:06.124Z,-155.26
2022-07-30T01:40:06.117Z,-155.26
2022-07-30T01:41:06.866Z,-155.26
2022-07-30T01:42:06.105Z,-155.26
2022-07-30T01:43:06.066Z,-155.26
2022-07-30T01:44:06.139Z,-155.26
2022-07-30T01:45:06.056Z,-155.26
2022-07-30T01:46:06.877Z,-155.26
2022-07-30T01:47:06.038Z,-155.26
2022-07-30T01:48:06.007Z,-155.26
2022-07-30T01:49:06.038Z,-155.26
2022-07-30T01:50:06.139Z,-155.26
2022-07-30T01:51:07.732Z,-155.26
2022-07-30T01:52:05.978Z,-155.26
2022-07-30T01:53:08.939Z,-155.26
2022-07-30T01:54:08.942Z,-155.26
2022-07-30T01:55:05.929Z,-155.26
2022-07-30T01:56:10.754Z,-155.26
2022-07-30T01:57:05.910Z,-155.26
2022-07-30T01:58:05.872Z,-155.26
2022-07-30T01:59:05.871Z,-155.26
2022-07-30T02:00:05.864Z,-155.26
2022-07-30T02:01:05.944Z,-155.26
2022-07-30T02:02:05.844Z,-155.26
2022-07-30T02:03:05.805Z,-155.26
2022-07-30T02:04:05.794Z,-155.26
2022-07-30T02:05:05.784Z,-155.26
2022-07-30T02:06:05.779Z,-155.26
2022-07-30T02:07:05.785Z,-155.26
2022-07-30T02:08:05.738Z,-155.26
2022-07-30T02:09:10.843Z,-154.04
2022-07-30T02:10:06.717Z,-154.04
2022-07-30T02:11:05.703Z,-155.26
2022-07-30T02:12:05.729Z,-155.26
2022-07-30T02:13:08.681Z,-155.26
2022-07-30T02:14:08.689Z,-155.26
2022-07-30T02:15:05.648Z,-155.26
2022-07-30T02:16:05.665Z,-155.26
2022-07-30T02:17:05.684Z,-155.26
2022-07-30T02:18:05.610Z,-155.26
2022-07-30T02:19:06.205Z,-155.26
2022-07-30T02:20:09.632Z,-155.26
2022-07-30T02:21:07.523Z,-155.26
2022-07-30T02:22:06.780Z,-155.26
2022-07-30T02:23:05.589Z,-155.26
2022-07-30T02:24:05.535Z,-155.26
2022-07-30T02:25:05.514Z,-155.26
2022-07-30T02:26:05.503Z,-155.26
2022-07-30T02:27:05.493Z,-155.26
2022-07-30T02:28:05.465Z,-155.26
2022-07-30T02:29:09.500Z,-155.26
2022-07-30T02:30:06.447Z,-155.26
2022-07-30T02:31:17.678Z,-155.26
2022-07-30T02:32:06.425Z,-155.26
2022-07-30T02:33:08.432Z,-155.26
2022-07-30T02:34:08.458Z,-155.26
2022-07-30T02:35:05.377Z,-155.26
2022-07-30T02:36:05.359Z,-155.26
2022-07-30T02:37:06.358Z,-155.26
2022-07-30T02:38:05.339Z,-155.26
2022-07-30T02:39:05.351Z,-155.26
2022-07-30T02:40:05.368Z,-154.04
2022-07-30T02:41:05.300Z,-155.26
2022-07-30T02:42:05.286Z,-155.26
2022-07-30T02:43:05.269Z,-154.04
2022-07-30T02:44:05.260Z,-154.04
2022-07-30T02:45:05.249Z,-154.04
2022-07-30T02:46:05.281Z,-154.04
2022-07-30T02:47:05.300Z,-154.04
2022-07-30T02:48:05.202Z,-154.04
2022-07-30T02:49:05.237Z,-154.04
2022-07-30T02:50:05.174Z,-154.04
2022-07-30T02:51:05.183Z,-154.04
2022-07-30T02:52:05.195Z,-154.04
2022-07-30T02:53:08.135Z,-155.26
2022-07-30T02:54:08.135Z,-155.26
2022-07-30T02:55:05.125Z,-155.26
2022-07-30T02:56:05.095Z,-155.26
2022-07-30T02:57:05.087Z,-155.26
2022-07-30T02:58:05.086Z,-155.26
2022-07-30T02:59:05.090Z,-155.26
2022-07-30T03:00:05.039Z,-155.26
2022-07-30T03:01:05.148Z,-155.26
2022-07-30T03:02:05.082Z,-155.26
2022-07-30T03:03:05.072Z,-155.26
2022-07-30T03:04:04.992Z,-155.26
2022-07-30T03:05:04.989Z,-155.26
2022-07-30T03:06:04.960Z,-155.26
2022-07-30T03:07:08.136Z,-155.26
2022-07-30T03:08:04.965Z,-154.04
2022-07-30T03:09:04.981Z,-154.04
2022-07-30T03:10:04.901Z,-154.04
2022-07-30T03:11:04.892Z,-154.04
2022-07-30T03:12:04.907Z,-154.04
2022-07-30T03:13:07.870Z,-154.04
2022-07-30T03:14:07.924Z,-154.04
2022-07-30T03:15:04.834Z,-154.04
2022-07-30T03:16:04.906Z,-154.04
2022-07-30T03:17:04.817Z,-154.04
2022-07-30T03:18:04.796Z,-154.04
2022-07-30T03:19:05.091Z,-154.04
2022-07-30T03:20:04.798Z,-154.04
2022-07-30T03:21:04.784Z,-154.04
2022-07-30T03:22:04.737Z,-154.04
2022-07-30T03:23:04.746Z,-154.04
2022-07-30T03:24:04.708Z,-154.04
2022-07-30T03:25:04.715Z,-154.04
2022-07-30T03:26:04.735Z,-154.04
2022-07-30T03:27:04.683Z,-154.04
2022-07-30T03:28:04.670Z,-154.04
2022-07-30T03:29:04.648Z,-154.04
2022-07-30T03:30:04.642Z,-154.04
2022-07-30T03:31:04.703Z,-154.04
2022-07-30T03:32:04.640Z,-154.04
2022-07-30T03:33:14.598Z,-154.04
2022-07-30T03:34:07.590Z,-154.04
2022-07-30T03:35:06.670Z,-154.04
2022-07-30T03:36:04.557Z,-154.04
2022-07-30T03:37:04.532Z,-154.04
2022-07-30T03:38:04.566Z,-154.04
2022-07-30T03:39:04.511Z,-154.04
2022-07-30T03:40:04.493Z,-154.04
2022-07-30T03:41:04.484Z,-154.04
2022-07-30T03:42:04.476Z,-154.04
2022-07-30T03:43:04.505Z,-154.04
2022-07-30T03:44:05.465Z,-154.04
2022-07-30T03:45:04.424Z,-154.04
2022-07-30T03:46:04.523Z,-154.04
2022-07-30T03:47:05.026Z,-154.04
2022-07-30T03:48:04.386Z,-154.04
2022-07-30T03:49:04.479Z,-154.04
2022-07-30T03:50:04.378Z,-154.04
2022-07-30T03:51:04.340Z,-152.83
2022-07-30T03:52:04.343Z,-152.83
2022-07-30T03:53:07.309Z,-152.83
2022-07-30T03:54:11.624Z,-152.83
2022-07-30T03:55:05.291Z,-152.83
2022-07-30T03:56:04.279Z,-152.83
2022-07-30T03:57:04.263Z,-152.83
2022-07-30T03:58:04.251Z,-152.83
2022-07-30T03:59:04.229Z,-152.83
2022-07-30T04:00:04.251Z,-152.83
2022-07-30T04:01:04.201Z,-152.83
2022-07-30T04:02:06.778Z,-152.83
2022-07-30T04:03:04.185Z,-152.83
2022-07-30T04:04:04.257Z,-152.83
2022-07-30T04:05:04.170Z,-152.83
2022-07-30T04:06:04.183Z,-152.83
2022-07-30T04:07:04.516Z,-152.83
2022-07-30T04:08:04.136Z,-154.04
2022-07-30T04:09:04.096Z,-154.04
2022-07-30T04:10:04.105Z,-154.04
2022-07-30T04:11:04.068Z,-154.04
2022-07-30T04:12:04.087Z,-154.04
2022-07-30T04:13:09.640Z,-154.04
2022-07-30T04:14:07.044Z,-154.04
2022-07-30T04:16:05.499Z,-154.04
2022-07-30T04:16:39.362Z,-154.04
2022-07-30T04:17:05.459Z,-152.83
2022-07-30T04:18:03.975Z,-152.83
2022-07-30T04:19:04.008Z,-152.83
2022-07-30T04:20:03.958Z,-152.83
2022-07-30T04:21:03.931Z,-152.83
2022-07-30T04:22:03.929Z,-152.83
2022-07-30T04:23:03.903Z,-152.83
2022-07-30T04:24:05.569Z,-152.83
2022-07-30T04:25:03.936Z,-154.04
2022-07-30T04:26:03.862Z,-154.04
2022-07-30T04:27:04.205Z,-154.04
2022-07-30T04:28:04.072Z,-154.04
2022-07-30T04:29:03.827Z,-154.04
2022-07-30T04:30:03.805Z,-154.04
2022-07-30T04:31:03.952Z,-152.83
2022-07-30T04:32:03.785Z,-152.83
2022-07-30T04:33:06.764Z,-152.83
2022-07-30T04:34:06.777Z,-152.83
2022-07-30T04:35:03.734Z,-152.83
2022-07-30T04:36:03.735Z,-152.83
2022-07-30T04:37:04.431Z,-152.83
2022-07-30T04:38:03.696Z,-152.83
2022-07-30T04:39:03.703Z,-152.83
2022-07-30T04:40:03.678Z,-152.83
2022-07-30T04:41:03.665Z,-154.04
2022-07-30T04:42:03.648Z,-152.83
2022-07-30T04:43:03.661Z,-154.04
2022-07-30T04:44:03.648Z,-152.83
2022-07-30T04:45:03.660Z,-154.04
2022-07-30T04:46:03.650Z,-154.04
2022-07-30T04:47:03.890Z,-154.04
2022-07-30T04:48:03.568Z,-154.04
2022-07-30T04:49:03.633Z,-155.26
2022-07-30T04:50:03.533Z,-155.26
2022-07-30T04:51:03.559Z,-155.26
2022-07-30T04:52:03.509Z,-155.26
2022-07-30T04:53:06.492Z,-155.26
2022-07-30T04:54:06.494Z,-155.26
2022-07-30T04:55:03.462Z,-155.26
2022-07-30T04:56:03.456Z,-156.48
2022-07-30T04:57:03.860Z,-156.48
2022-07-30T04:58:03.447Z,-156.48
2022-07-30T04:59:03.407Z,-156.48
2022-07-30T05:00:03.395Z,-155.26
2022-07-30T05:01:03.384Z,-155.26
2022-07-30T05:02:03.409Z,-155.26
2022-07-30T05:03:03.407Z,-155.26
2022-07-30T05:04:03.354Z,-156.48
2022-07-30T05:05:03.389Z,-156.48
2022-07-30T05:06:03.328Z,-156.48
2022-07-30T05:07:03.769Z,-156.48
2022-07-30T05:08:03.288Z,-156.48
2022-07-30T05:09:03.389Z,-156.48
2022-07-30T05:10:03.260Z,-156.48
2022-07-30T05:11:03.249Z,-156.48
2022-07-30T05:12:03.251Z,-156.48
2022-07-30T05:13:07.974Z,-156.48
2022-07-30T05:14:06.252Z,-156.48
2022-07-30T05:15:03.238Z,-156.48
2022-07-30T05:16:03.226Z,-156.48
2022-07-30T05:17:03.647Z,-156.48
2022-07-30T05:18:03.186Z,-156.48
2022-07-30T05:19:07.456Z,-156.48
2022-07-30T05:20:03.163Z,-156.48
2022-07-30T05:21:03.144Z,-156.48
2022-07-30T05:22:06.508Z,-156.48
2022-07-30T05:23:03.095Z,-156.48
2022-07-30T05:24:03.086Z,-156.48
2022-07-30T05:25:03.075Z,-156.48
2022-07-30T05:26:04.106Z,-156.48
2022-07-30T05:27:03.523Z,-156.48
2022-07-30T05:28:03.039Z,-156.48
2022-07-30T05:29:07.015Z,-156.48
2022-07-30T05:30:03.097Z,-156.48
2022-07-30T05:31:03.014Z,-157.70
2022-07-30T05:32:04.047Z,-157.70
2022-07-30T05:33:05.958Z,-157.70
2022-07-30T05:34:06.969Z,-157.70
2022-07-30T05:35:02.930Z,-157.70
2022-07-30T05:36:02.935Z,-157.70
2022-07-30T05:37:03.458Z,-157.70
2022-07-30T05:38:02.920Z,-157.70
2022-07-30T05:39:02.881Z,-157.70
2022-07-30T05:40:03.722Z,-157.70
2022-07-30T05:41:02.861Z,-157.70
2022-07-30T05:42:02.844Z,-157.70
2022-07-30T05:43:02.885Z,-157.70
2022-07-30T05:44:02.829Z,-157.70
2022-07-30T05:45:02.889Z,-157.70
2022-07-30T05:46:02.877Z,-157.70
2022-07-30T05:47:03.055Z,-157.70
2022-07-30T05:48:02.772Z,-157.70
2022-07-30T05:49:02.857Z,-157.70
2022-07-30T05:50:05.013Z,-157.70
2022-07-30T05:51:02.728Z,-157.70
2022-07-30T05:52:02.716Z,-157.70
2022-07-30T05:53:05.713Z,-157.70
2022-07-30T05:54:05.767Z,-157.70
2022-07-30T05:55:02.682Z,-157.70
2022-07-30T05:56:02.667Z,-157.70
2022-07-30T05:57:03.178Z,-157.70
2022-07-30T05:58:02.648Z,-158.91
2022-07-30T05:59:02.638Z,-158.91
2022-07-30T06:00:02.651Z,-158.91
2022-07-30T06:01:02.603Z,-158.91
2022-07-30T06:02:02.647Z,-158.91
2022-07-30T06:03:02.600Z,-158.91
2022-07-30T06:04:02.644Z,-158.91
2022-07-30T06:05:02.757Z,-158.91
2022-07-30T06:06:02.542Z,-158.91
2022-07-30T06:07:03.421Z,-158.91
2022-07-30T06:08:02.621Z,-158.91
2022-07-30T06:09:02.500Z,-158.91
2022-07-30T06:10:02.493Z,-160.13
2022-07-30T06:11:02.535Z,-160.13
2022-07-30T06:12:02.465Z,-160.13
2022-07-30T06:13:05.569Z,-160.13
2022-07-30T06:14:05.455Z,-160.13
2022-07-30T06:15:02.415Z,-160.13
2022-07-30T06:16:02.468Z,-160.13
2022-07-30T06:17:02.874Z,-161.35
2022-07-30T06:18:02.619Z,-162.57
2022-07-30T06:19:02.367Z,-163.78
2022-07-30T06:20:02.388Z,-165.00
2022-07-30T06:21:02.345Z,-166.22
2022-07-30T06:22:06.742Z,-166.22
2022-07-30T06:23:02.331Z,-165.00
2022-07-30T06:24:02.322Z,-165.00
2022-07-30T06:25:02.281Z,-163.78
2022-07-30T06:26:02.318Z,-162.57
2022-07-30T06:27:02.619Z,-162.57
2022-07-30T06:28:21.010Z,-162.57
2022-07-30T06:29:03.222Z,-162.57
2022-07-30T06:30:02.276Z,-162.57
2022-07-30T06:31:02.248Z,-162.57
2022-07-30T06:32:02.253Z,-161.35
2022-07-30T06:33:05.177Z,-161.35
2022-07-30T06:34:05.221Z,-161.35
2022-07-30T06:35:04.801Z,-161.35
2022-07-30T06:36:02.138Z,-160.13
2022-07-30T06:37:02.615Z,-160.13
2022-07-30T06:38:07.745Z,-160.13
2022-07-30T06:39:03.098Z,-160.13
2022-07-30T06:40:02.077Z,-160.13
2022-07-30T06:41:03.015Z,-160.13
2022-07-30T06:42:03.524Z,-160.13
2022-07-30T06:43:02.048Z,-160.13
2022-07-30T06:44:02.080Z,-160.13
2022-07-30T06:45:02.021Z,-160.13
2022-07-30T06:46:02.069Z,-160.13
2022-07-30T06:47:07.528Z,-160.13
2022-07-30T06:48:02.990Z,-160.13
2022-07-30T06:49:02.043Z,-161.35
2022-07-30T06:50:01.975Z,-161.35
2022-07-30T06:51:01.921Z,-161.35
2022-07-30T06:52:02.683Z,-160.13
2022-07-30T06:53:04.925Z,-160.13
2022-07-30T06:54:04.940Z,-160.13
2022-07-30T06:55:01.872Z,-160.13
2022-07-30T06:56:01.860Z,-160.13
2022-07-30T06:57:03.101Z,-160.13
2022-07-30T06:58:01.845Z,-161.35
2022-07-30T06:59:01.896Z,-161.35
2022-07-30T07:00:01.802Z,-161.35
2022-07-30T07:01:01.843Z,-161.35
2022-07-30T07:02:03.237Z,-161.35
2022-07-30T07:03:01.768Z,-161.35
2022-07-30T07:04:01.806Z,-161.35
2022-07-30T07:05:01.888Z,-161.35
2022-07-30T07:06:01.717Z,-161.35
2022-07-30T07:07:12.537Z,-161.35
2022-07-30T07:08:02.699Z,-161.35
2022-07-30T07:09:01.669Z,-162.57
2022-07-30T07:10:01.659Z,-162.57
2022-07-30T07:11:01.704Z,-162.57
2022-07-30T07:12:02.401Z,-161.35
2022-07-30T07:13:04.621Z,-161.35
2022-07-30T07:14:05.062Z,-161.35
2022-07-30T07:15:01.594Z,-161.35
2022-07-30T07:16:01.583Z,-161.35
2022-07-30T07:17:02.812Z,-161.35
2022-07-30T07:18:02.350Z,-162.57
2022-07-30T07:19:01.545Z,-162.57
2022-07-30T07:20:02.776Z,-162.57
2022-07-30T07:21:01.521Z,-162.57
2022-07-30T07:22:02.270Z,-162.57
2022-07-30T07:23:04.171Z,-162.57
2022-07-30T07:24:02.468Z,-162.57
2022-07-30T07:25:01.459Z,-162.57
2022-07-30T07:26:01.458Z,-162.57
2022-07-30T07:27:02.613Z,-162.57
2022-07-30T07:28:12.305Z,-162.57
2022-07-30T07:29:05.231Z,-162.57
2022-07-30T07:30:05.326Z,-162.57
2022-07-30T07:31:01.442Z,-162.57
2022-07-30T07:32:07.000Z,-162.57
2022-07-30T07:33:05.380Z,-162.57
2022-07-30T07:34:04.371Z,-162.57
2022-07-30T07:35:01.322Z,-162.57
2022-07-30T07:36:01.310Z,-162.57
2022-07-30T07:37:02.491Z,-162.57
2022-07-30T07:38:01.317Z,-162.57
2022-07-30T07:39:01.792Z,-162.57
2022-07-30T07:40:01.266Z,-162.57
2022-07-30T07:41:01.246Z,-163.78
2022-07-30T07:42:01.997Z,-163.78
2022-07-30T07:43:01.261Z,-163.78
2022-07-30T07:44:01.233Z,-163.78
2022-07-30T07:45:01.254Z,-163.78
2022-07-30T07:46:01.250Z,-163.78
2022-07-30T07:47:02.104Z,-163.78
2022-07-30T07:48:01.169Z,-163.78
2022-07-30T07:49:01.207Z,-163.78
2022-07-30T07:50:01.125Z,-163.78
2022-07-30T07:51:01.161Z,-163.78
2022-07-30T07:52:01.099Z,-163.78
2022-07-30T07:53:04.116Z,-163.78
2022-07-30T07:54:20.433Z,-163.78
2022-07-30T07:55:02.090Z,-163.78
2022-07-30T07:56:01.040Z,-163.78
2022-07-30T07:57:02.423Z,-163.78
2022-07-30T07:58:01.020Z,-163.78
2022-07-30T07:59:01.003Z,-163.78
2022-07-30T08:00:00.989Z,-163.78
2022-07-30T08:01:01.013Z,-163.78
2022-07-30T08:02:04.005Z,-163.78
2022-07-30T08:03:00.954Z,-163.78
2022-07-30T08:04:00.948Z,-163.78
2022-07-30T08:05:00.924Z,-163.78
2022-07-30T08:06:06.207Z,-163.78
2022-07-30T08:07:02.347Z,-163.78
2022-07-30T08:08:00.886Z,-163.78
2022-07-30T08:09:00.880Z,-163.78
2022-07-30T08:10:00.868Z,-163.78
2022-07-30T08:11:00.847Z,-163.78
2022-07-30T08:12:00.892Z,-163.78
2022-07-30T08:13:03.869Z,-163.78
2022-07-30T08:14:03.818Z,-163.78
2022-07-30T08:15:00.807Z,-163.78
2022-07-30T08:16:00.779Z,-163.78
2022-07-30T08:17:01.337Z,-163.78
2022-07-30T08:18:00.749Z,-163.78
2022-07-30T08:19:00.781Z,-163.78
2022-07-30T08:20:00.737Z,-163.78
2022-07-30T08:21:00.723Z,-163.78
2022-07-30T08:22:00.692Z,-165.00
2022-07-30T08:23:00.688Z,-165.00
2022-07-30T08:24:00.739Z,-165.00
2022-07-30T08:25:00.672Z,-165.00
2022-07-30T08:26:00.643Z,-165.00
2022-07-30T08:27:00.939Z,-165.00
2022-07-30T08:28:00.615Z,-165.00
2022-07-30T08:29:00.607Z,-163.78
2022-07-30T08:30:00.645Z,-163.78
2022-07-30T08:31:02.457Z,-165.00
2022-07-30T08:32:00.850Z,-165.00
2022-07-30T08:33:03.556Z,-165.00
2022-07-30T08:34:03.547Z,-165.00
2022-07-30T08:35:00.529Z,-163.78
2022-07-30T08:36:04.341Z,-165.00
2022-07-30T08:37:01.498Z,-165.00
2022-07-30T08:38:00.482Z,-165.00
2022-07-30T08:39:00.470Z,-165.00
2022-07-30T08:40:00.458Z,-165.00
2022-07-30T08:41:00.440Z,-165.00
2022-07-30T08:42:00.729Z,-165.00
2022-07-30T08:43:00.411Z,-165.00
2022-07-30T08:44:00.411Z,-165.00
2022-07-30T08:45:00.383Z,-165.00
2022-07-30T08:46:00.373Z,-165.00
2022-07-30T08:47:00.586Z,-165.00
2022-07-30T08:48:00.385Z,-165.00
2022-07-30T08:49:06.396Z,-165.00
2022-07-30T08:50:01.319Z,-165.00
2022-07-30T08:51:00.316Z,-165.00
2022-07-30T08:52:00.640Z,-166.22
2022-07-30T08:53:03.326Z,-166.22
2022-07-30T08:54:03.280Z,-166.22
2022-07-30T08:55:00.277Z,-166.22
2022-07-30T08:56:00.240Z,-166.22
2022-07-30T08:57:00.235Z,-166.22
2022-07-30T08:58:00.211Z,-166.22
2022-07-30T08:59:00.274Z,-166.22
2022-07-30T09:00:01.766Z,-166.22
2022-07-30T09:01:00.180Z,-166.22
2022-07-30T09:02:00.421Z,-166.22
2022-07-30T09:03:00.149Z,-166.22
2022-07-30T09:04:00.223Z,-166.22
2022-07-30T09:05:00.204Z,-166.22
2022-07-30T09:06:00.113Z,-166.22
2022-07-30T09:07:00.523Z,-166.22
2022-07-30T09:08:00.075Z,-166.22
2022-07-30T09:09:00.086Z,-166.22
2022-07-30T09:10:00.047Z,-166.22
2022-07-30T09:11:00.065Z,-166.22
2022-07-30T09:12:00.020Z,-166.22
2022-07-30T09:13:03.073Z,-166.22
2022-07-30T09:14:04.840Z,-166.22
2022-07-30T09:14:59.986Z,-166.22
2022-07-30T09:15:59.964Z,-166.22
2022-07-30T09:17:00.351Z,-166.22
2022-07-30T09:17:59.936Z,-166.22
2022-07-30T09:18:59.965Z,-166.22
2022-07-30T09:19:59.909Z,-166.22
2022-07-30T09:20:59.945Z,-166.22
2022-07-30T09:21:59.883Z,-166.22
2022-07-30T09:22:59.876Z,-166.22
2022-07-30T09:23:59.861Z,-166.22
2022-07-30T09:24:59.852Z,-166.22
2022-07-30T09:25:59.888Z,-166.22
2022-07-30T09:27:00.072Z,-166.22
2022-07-30T09:27:59.802Z,-166.22
2022-07-30T09:28:59.801Z,-166.22
2022-07-30T09:29:59.789Z,-166.22
2022-07-30T09:30:59.773Z,-166.22
2022-07-30T09:32:00.000Z,-166.22
2022-07-30T09:33:09.750Z,-166.22
2022-07-30T09:34:02.747Z,-166.22
2022-07-30T09:34:59.711Z,-166.22
2022-07-30T09:35:59.701Z,-165.00
2022-07-30T09:36:59.743Z,-166.22
2022-07-30T09:38:03.207Z,-166.22
2022-07-30T09:39:00.662Z,-166.22
2022-07-30T09:39:59.911Z,-166.22
2022-07-30T09:41:07.985Z,-166.22
2022-07-30T09:42:00.947Z,-166.22
2022-07-30T09:42:59.615Z,-166.22
2022-07-30T09:43:59.787Z,-166.22
2022-07-30T09:44:59.584Z,-166.22
2022-07-30T09:45:59.568Z,-166.22
2022-07-30T09:46:59.553Z,-166.22
2022-07-30T09:47:59.554Z,-166.22
2022-07-30T09:48:59.553Z,-166.22
2022-07-30T09:50:04.061Z,-166.22
2022-07-30T09:51:00.498Z,-166.22
2022-07-30T09:51:59.525Z,-166.22
2022-07-30T09:53:02.470Z,-166.22
2022-07-30T09:54:02.479Z,-167.44
2022-07-30T09:54:59.450Z,-167.44
2022-07-30T09:55:59.483Z,-167.44
2022-07-30T09:56:59.422Z,-167.44
2022-07-30T09:57:59.404Z,-167.44
2022-07-30T09:58:59.414Z,-167.44
2022-07-30T09:59:59.975Z,-167.44
2022-07-30T10:01:00.203Z,-167.44
2022-07-30T10:02:03.827Z,-167.44
2022-07-30T10:03:00.357Z,-167.44
2022-07-30T10:04:00.321Z,-167.44
2022-07-30T10:04:59.316Z,-167.44
2022-07-30T10:05:59.296Z,-167.44
2022-07-30T10:06:59.309Z,-167.44
2022-07-30T10:07:59.308Z,-167.44
2022-07-30T10:08:59.257Z,-167.44
2022-07-30T10:09:59.240Z,-167.44
2022-07-30T10:10:59.228Z,-167.44
2022-07-30T10:12:00.626Z,-167.44
2022-07-30T10:13:04.427Z,-167.44
2022-07-30T10:14:02.200Z,-167.44
2022-07-30T10:14:59.193Z,-167.44
2022-07-30T10:15:59.162Z,-167.44
2022-07-30T10:16:59.152Z,-167.44
2022-07-30T10:17:59.143Z,-167.44
2022-07-30T10:18:59.206Z,-167.44
2022-07-30T10:19:59.172Z,-167.44
2022-07-30T10:20:59.100Z,-167.44
2022-07-30T10:21:59.302Z,-167.44
2022-07-30T10:22:59.082Z,-167.44
2022-07-30T10:23:59.054Z,-167.44
2022-07-30T10:24:59.046Z,-167.44
2022-07-30T10:25:59.057Z,-167.44
2022-07-30T10:26:59.421Z,-167.44
2022-07-30T10:27:58.997Z,-167.44
2022-07-30T10:28:58.987Z,-167.44
2022-07-30T10:29:58.978Z,-167.44
2022-07-30T10:30:59.886Z,-167.44
2022-07-30T10:31:58.949Z,-167.44
2022-07-30T10:33:01.989Z,-167.44
2022-07-30T10:34:01.940Z,-167.44
2022-07-30T10:34:58.917Z,-167.44
2022-07-30T10:35:58.901Z,-167.44
2022-07-30T10:36:58.881Z,-167.44
2022-07-30T10:37:58.873Z,-167.44
2022-07-30T10:38:59.016Z,-167.44
2022-07-30T10:39:58.843Z,-167.44
2022-07-30T10:40:58.833Z,-167.44
2022-07-30T10:41:58.826Z,-167.44
2022-07-30T10:42:58.816Z,-167.44
2022-07-30T10:43:58.793Z,-167.44
2022-07-30T10:44:58.807Z,-167.44
2022-07-30T10:45:58.765Z,-167.44
2022-07-30T10:46:58.785Z,-167.44
2022-07-30T10:47:58.736Z,-167.44
2022-07-30T10:48:58.750Z,-167.44
2022-07-30T10:49:58.739Z,-167.44
2022-07-30T10:50:58.700Z,-167.44
2022-07-30T10:51:58.689Z,-167.44
2022-07-30T10:53:01.682Z,-167.44
2022-07-30T10:54:01.700Z,-167.44
2022-07-30T10:54:58.702Z,-167.44
2022-07-30T10:55:58.644Z,-167.44
2022-07-30T10:56:58.877Z,-167.44
2022-07-30T10:57:58.612Z,-167.44
2022-07-30T10:58:58.592Z,-167.44
2022-07-30T11:00:00.075Z,-167.44
2022-07-30T11:00:58.580Z,-167.44
2022-07-30T11:01:58.564Z,-167.44
2022-07-30T11:02:58.546Z,-167.44
2022-07-30T11:03:58.525Z,-167.44
2022-07-30T11:04:58.514Z,-167.44
2022-07-30T11:05:58.664Z,-167.44
2022-07-30T11:06:58.487Z,-167.44
2022-07-30T11:07:58.477Z,-167.44
2022-07-30T11:08:58.542Z,-167.44
2022-07-30T11:10:04.280Z,-167.44
2022-07-30T11:10:59.480Z,-167.44
2022-07-30T11:12:06.095Z,-167.44
2022-07-30T11:13:02.440Z,-167.44
2022-07-30T11:14:01.411Z,-167.44
2022-07-30T11:14:58.401Z,-167.44
2022-07-30T11:15:59.386Z,-167.44
2022-07-30T11:16:58.433Z,-167.44
2022-07-30T11:17:58.351Z,-167.44
2022-07-30T11:19:18.573Z,-167.44
2022-07-30T11:20:01.873Z,-167.44
2022-07-30T11:20:58.302Z,-167.44
2022-07-30T11:21:58.285Z,-167.44
2022-07-30T11:22:58.316Z,-167.44
2022-07-30T11:23:58.265Z,-167.44
2022-07-30T11:24:58.250Z,-167.44
2022-07-30T11:25:58.234Z,-167.44
2022-07-30T11:26:58.251Z,-167.44
2022-07-30T11:27:58.209Z,-167.44
2022-07-30T11:28:58.229Z,-167.44
2022-07-30T11:29:58.180Z,-167.44
2022-07-30T11:30:58.170Z,-167.44
2022-07-30T11:31:59.470Z,-167.44
2022-07-30T11:33:01.160Z,-167.44
2022-07-30T11:34:01.201Z,-167.44
2022-07-30T11:34:58.112Z,-167.44
2022-07-30T11:35:58.111Z,-167.44
2022-07-30T11:36:58.092Z,-167.44
2022-07-30T11:37:58.073Z,-167.44
2022-07-30T11:39:05.389Z,-167.44
2022-07-30T11:39:59.097Z,-167.44
2022-07-30T11:40:58.039Z,-167.44
2022-07-30T11:41:58.021Z,-167.44
2022-07-30T11:42:58.016Z,-167.44
2022-07-30T11:43:57.995Z,-167.44
2022-07-30T11:45:03.598Z,-167.44
2022-07-30T11:45:58.997Z,-167.44
2022-07-30T11:46:57.958Z,-167.44
2022-07-30T11:47:57.950Z,-167.44
2022-07-30T11:48:57.998Z,-167.44
2022-07-30T11:49:57.911Z,-167.44
2022-07-30T11:51:03.449Z,-167.44
2022-07-30T11:51:59.213Z,-167.44
2022-07-30T11:53:00.888Z,-167.44
2022-07-30T11:54:00.873Z,-167.44
2022-07-30T11:54:57.850Z,-167.44
2022-07-30T11:55:57.862Z,-167.44
2022-07-30T11:57:02.113Z,-167.44
2022-07-30T11:57:58.815Z,-167.44
2022-07-30T11:58:57.793Z,-167.44
2022-07-30T11:59:57.801Z,-167.44
2022-07-30T12:00:57.797Z,-167.44
2022-07-30T12:01:57.754Z,-167.44
2022-07-30T12:02:59.866Z,-167.44
2022-07-30T12:03:57.732Z,-167.44
2022-07-30T12:04:57.709Z,-167.44